createdAt,value
2023-04-14T00:02:11.954Z,9.93
2023-04-14T00:04:38.829Z,13.32
2023-04-14T00:07:06.068Z,17.23
2023-04-14T00:09:32.701Z,17.02
2023-04-14T00:11:59.232Z,12.45
2023-04-14T00:14:26.068Z,12.52
2023-04-14T00:16:52.720Z,18.50
2023-04-14T00:19:19.496Z,14.52
2023-04-14T00:21:46.116Z,12.70
2023-04-14T00:24:12.814Z,9.80
2023-04-14T00:26:39.537Z,9.55
2023-04-14T00:29:06.191Z,9.63
2023-04-14T00:31:32.950Z,10.68
2023-04-14T00:33:59.616Z,9.00
2023-04-14T00:36:26.961Z,10.18
2023-04-14T00:38:53.670Z,10.30
2023-04-14T00:41:20.308Z,11.48
2023-04-14T00:43:48.311Z,12.52
2023-04-14T00:46:17.287Z,13.50
2023-04-14T00:48:44.525Z,19.55
2023-04-14T00:51:14.334Z,26.58
2023-04-14T00:53:44.010Z,24.02
2023-04-14T00:56:14.530Z,21.55
2023-04-14T00:58:44.712Z,22.23
2023-04-14T01:01:15.369Z,20.20
2023-04-14T01:03:45.213Z,29.73
2023-04-14T01:06:14.687Z,35.30
2023-04-14T01:08:42.252Z,17.02
2023-04-14T01:11:14.639Z,11.65
2023-04-14T01:13:53.923Z,10.40
2023-04-14T01:16:30.106Z,10.55
2023-04-14T01:19:13.429Z,13.07
2023-04-14T01:21:46.868Z,13.32
2023-04-14T01:24:43.973Z,11.02
2023-04-14T01:27:26.902Z,18.45
2023-04-14T01:30:02.521Z,17.30
2023-04-14T01:32:31.757Z,13.77
2023-04-14T01:35:05.740Z,11.30
2023-04-14T01:38:05.644Z,15.15
2023-04-14T01:40:34.689Z,24.50
2023-04-14T01:43:05.731Z,17.45
2023-04-14T01:45:38.294Z,16.58
2023-04-14T01:48:07.513Z,15.60
2023-04-14T01:50:37.225Z,12.82
2023-04-14T01:53:07.127Z,8.98
2023-04-14T01:55:36.455Z,9.82
2023-04-14T01:58:05.386Z,9.45
2023-04-14T02:00:37.021Z,11.90
2023-04-14T02:03:06.340Z,20.77
2023-04-14T02:05:39.258Z,28.48
2023-04-14T02:08:12.739Z,33.60
2023-04-14T02:10:44.355Z,20.15
2023-04-14T02:13:16.433Z,13.27
2023-04-14T02:15:44.125Z,12.57
2023-04-14T02:18:11.500Z,10.45
2023-04-14T02:20:43.491Z,9.70
2023-04-14T02:23:14.040Z,12.27
2023-04-14T02:25:49.692Z,12.23
2023-04-14T02:28:19.613Z,13.13
2023-04-14T02:30:50.511Z,10.63
2023-04-14T02:33:22.006Z,12.00
2023-04-14T02:35:54.830Z,13.90
2023-04-14T02:38:33.860Z,16.30
2023-04-14T02:41:08.236Z,20.75
2023-04-14T02:43:46.467Z,15.52
2023-04-14T02:46:18.140Z,18.58
2023-04-14T02:48:47.105Z,26.40
2023-04-14T02:51:15.524Z,21.95
2023-04-14T02:53:44.527Z,20.48
2023-04-14T02:56:12.659Z,12.60
2023-04-14T02:58:42.251Z,14.88
2023-04-14T03:01:09.912Z,15.63
2023-04-14T03:03:37.888Z,17.38
2023-04-14T03:06:06.955Z,24.60
2023-04-14T03:08:35.033Z,27.55
2023-04-14T03:11:02.861Z,32.72
2023-04-14T03:13:33.574Z,48.22
2023-04-14T03:16:00.873Z,40.95
2023-04-14T03:18:28.103Z,23.88
2023-04-14T03:20:56.049Z,24.92
2023-04-14T03:23:25.323Z,55.15
2023-04-14T03:25:53.618Z,55.83
2023-04-14T03:28:23.723Z,53.85
2023-04-14T03:30:54.236Z,36.70
2023-04-14T03:33:24.726Z,34.65
2023-04-14T03:35:53.757Z,38.03
2023-04-14T03:38:21.727Z,42.08
2023-04-14T03:40:50.505Z,41.60
2023-04-14T03:43:23.230Z,45.97
2023-04-14T03:45:51.958Z,16.80
2023-04-14T03:48:21.616Z,15.07
2023-04-14T03:50:51.840Z,19.65
2023-04-14T03:53:21.350Z,23.83
2023-04-14T03:55:51.640Z,29.90
2023-04-14T03:58:18.915Z,34.65
2023-04-14T04:00:46.636Z,37.22
2023-04-14T04:03:15.925Z,27.58
2023-04-14T04:05:44.831Z,23.60
2023-04-14T04:08:15.000Z,20.25
2023-04-14T04:10:46.891Z,27.13
2023-04-14T04:13:19.533Z,59.38
2023-04-14T04:15:47.603Z,76.43
2023-04-14T04:18:17.026Z,69.15
2023-04-14T04:20:44.857Z,63.70
2023-04-14T04:23:18.337Z,76.72
2023-04-14T04:25:45.433Z,53.53
2023-04-14T04:28:12.506Z,31.00
2023-04-14T04:30:42.919Z,30.85
2023-04-14T04:33:13.960Z,28.65
2023-04-14T04:35:46.223Z,22.10
2023-04-14T04:38:13.083Z,21.92
2023-04-14T04:40:39.875Z,19.23
2023-04-14T04:43:06.617Z,21.08
2023-04-14T04:46:02.475Z,23.90
2023-04-14T04:48:29.177Z,30.80
2023-04-14T04:50:56.846Z,34.17
2023-04-14T04:53:23.453Z,37.05
2023-04-14T04:55:50.078Z,29.33
2023-04-14T04:58:16.815Z,33.45
2023-04-14T05:00:43.490Z,33.08
2023-04-14T05:03:12.505Z,23.25
2023-04-14T05:05:39.264Z,19.17
2023-04-14T05:08:06.035Z,17.15
2023-04-14T05:10:36.630Z,20.98
2023-04-14T05:13:04.043Z,19.40
2023-04-14T05:15:30.724Z,19.60
2023-04-14T05:17:59.251Z,17.75
2023-04-14T05:20:26.038Z,15.55
2023-04-14T05:22:53.858Z,17.65
2023-04-14T05:25:20.631Z,20.58
2023-04-14T05:27:47.255Z,18.67
2023-04-14T05:30:14.076Z,18.80
2023-04-14T05:32:44.376Z,20.67
2023-04-14T05:35:11.650Z,21.63
2023-04-14T05:37:38.311Z,23.55
2023-04-14T05:40:05.542Z,20.75
2023-04-14T05:42:32.378Z,21.08
2023-04-14T05:44:59.101Z,21.30
2023-04-14T05:47:26.068Z,19.83
2023-04-14T05:49:52.773Z,16.48
2023-04-14T05:52:19.399Z,20.17
2023-04-14T05:54:46.100Z,20.45
2023-04-14T05:57:12.740Z,21.17
2023-04-14T05:59:39.381Z,21.85
2023-04-14T06:02:07.555Z,20.85
2023-04-14T06:04:34.509Z,18.10
2023-04-14T06:07:02.881Z,18.65
2023-04-14T06:09:29.690Z,18.88
2023-04-14T06:11:56.822Z,19.42
2023-04-14T06:14:23.802Z,18.80
2023-04-14T06:16:51.235Z,17.95
2023-04-14T06:19:18.829Z,18.40
2023-04-14T06:21:46.732Z,21.17
2023-04-14T06:24:13.465Z,17.90
2023-04-14T06:26:44.418Z,14.35
2023-04-14T06:29:11.983Z,18.90
2023-04-14T06:31:38.898Z,13.40
2023-04-14T06:34:05.650Z,13.85
2023-04-14T06:36:32.949Z,12.40
2023-04-14T06:39:00.572Z,14.20
2023-04-14T06:41:27.288Z,13.75
2023-04-14T06:43:54.048Z,11.88
2023-04-14T06:46:20.768Z,15.35
2023-04-14T06:48:47.446Z,11.68
2023-04-14T06:51:14.447Z,12.07
2023-04-14T06:53:43.840Z,11.88
2023-04-14T06:56:13.357Z,14.13
2023-04-14T06:58:42.570Z,10.10
2023-04-14T07:01:10.892Z,11.75
2023-04-14T07:03:38.582Z,10.73
2023-04-14T07:06:07.773Z,12.60
2023-04-14T07:08:35.421Z,11.75
2023-04-14T07:11:04.261Z,10.82
2023-04-14T07:13:31.158Z,11.93
2023-04-14T07:15:59.151Z,13.75
2023-04-14T07:18:25.889Z,13.40
2023-04-14T07:20:54.165Z,15.60
2023-04-14T07:23:21.726Z,15.55
2023-04-14T07:25:55.076Z,15.52
2023-04-14T07:28:23.030Z,17.10
2023-04-14T07:30:50.478Z,14.38
2023-04-14T07:33:19.120Z,17.55
2023-04-14T07:36:01.939Z,55.50
2023-04-14T07:38:29.925Z,184.32
2023-04-14T07:40:56.596Z,72.20
2023-04-14T07:43:23.978Z,63.42
2023-04-14T07:45:53.090Z,28.40
2023-04-14T07:48:21.764Z,17.15
2023-04-14T07:50:50.013Z,17.95
2023-04-14T07:53:16.780Z,20.02
2023-04-14T07:55:43.481Z,19.48
2023-04-14T07:58:15.253Z,19.10
2023-04-14T08:00:43.069Z,21.63
2023-04-14T08:03:10.093Z,24.90
2023-04-14T08:05:37.839Z,22.73
2023-04-14T08:08:04.944Z,29.50
2023-04-14T08:10:31.642Z,47.67
2023-04-14T08:12:58.350Z,30.33
2023-04-14T08:15:25.048Z,85.10
2023-04-14T08:17:52.245Z,56.30
2023-04-14T08:20:19.164Z,29.83
2023-04-14T08:22:46.493Z,24.75
2023-04-14T08:25:13.192Z,37.20
2023-04-14T08:27:39.877Z,19.58
2023-04-14T08:30:09.481Z,21.30
2023-04-14T08:32:37.689Z,19.38
2023-04-14T08:35:35.696Z,18.65
2023-04-14T08:37:51.250Z,21.38
2023-04-14T08:40:19.256Z,19.77
2023-04-14T08:42:46.344Z,21.10
2023-04-14T08:45:13.605Z,19.58
2023-04-14T08:47:41.076Z,24.48
2023-04-14T08:50:13.672Z,27.55
2023-04-14T08:52:45.868Z,23.15
2023-04-14T08:55:15.575Z,20.13
2023-04-14T08:57:44.290Z,19.90
2023-04-14T09:00:13.109Z,18.63
2023-04-14T09:02:43.320Z,17.20
2023-04-14T09:05:14.166Z,20.67
2023-04-14T09:07:42.932Z,17.20
2023-04-14T09:10:12.279Z,16.40
2023-04-14T09:12:41.927Z,20.85
2023-04-14T09:15:09.514Z,15.68
2023-04-14T09:17:37.775Z,17.60
2023-04-14T09:22:53.264Z,14.55
2023-04-14T09:27:49.266Z,17.88
2023-04-14T09:30:17.839Z,16.63
2023-04-14T09:32:45.231Z,19.23
2023-04-14T09:35:16.303Z,17.05
2023-04-14T09:37:44.622Z,18.55
2023-04-14T09:40:32.050Z,19.20
2023-04-14T09:42:58.851Z,20.73
2023-04-14T09:45:43.249Z,20.90
2023-04-14T09:48:13.269Z,20.27
2023-04-14T09:51:03.498Z,19.75
2023-04-14T09:53:35.635Z,20.15
2023-04-14T09:56:12.716Z,22.08
2023-04-14T09:58:46.191Z,24.23
2023-04-14T10:01:17.189Z,23.58
2023-04-14T10:03:49.253Z,23.80
2023-04-14T10:06:21.597Z,23.20
2023-04-14T10:08:52.995Z,22.42
2023-04-14T10:11:19.603Z,19.50
2023-04-14T10:13:48.543Z,19.00
2023-04-14T10:16:15.935Z,20.33
2023-04-14T10:18:43.420Z,27.77
2023-04-14T10:21:12.149Z,22.83
2023-04-14T10:23:41.441Z,23.70
2023-04-14T10:26:13.130Z,22.75
2023-04-14T10:28:45.959Z,21.95
2023-04-14T10:31:34.851Z,18.90
2023-04-14T10:34:14.731Z,20.10
2023-04-14T10:36:44.535Z,21.77
2023-04-14T10:39:12.583Z,23.08
2023-04-14T10:41:42.977Z,24.20
2023-04-14T10:44:27.423Z,24.58
2023-04-14T10:46:56.840Z,22.65
2023-04-14T10:49:32.908Z,23.25
2023-04-14T10:52:04.491Z,81.10
2023-04-14T10:54:55.884Z,29.85
2023-04-14T10:57:24.091Z,25.63
2023-04-14T10:59:57.499Z,26.00
2023-04-14T11:02:28.556Z,26.20
2023-04-14T11:05:00.442Z,30.08
2023-04-14T11:07:28.818Z,28.67
2023-04-14T11:12:29.091Z,34.25
2023-04-14T11:15:01.687Z,27.30
2023-04-14T11:17:32.997Z,28.33
2023-04-14T11:20:00.151Z,24.75
2023-04-14T11:22:39.753Z,24.90
2023-04-14T11:25:14.598Z,23.77
2023-04-14T11:27:42.956Z,25.35
2023-04-14T11:32:48.070Z,24.73
2023-04-14T11:35:16.032Z,26.48
2023-04-14T11:37:43.469Z,46.17
2023-04-14T11:40:12.357Z,25.27
2023-04-14T11:43:00.752Z,41.10
2023-04-14T11:45:31.070Z,64.68
2023-04-14T11:48:06.253Z,73.57
2023-04-14T11:50:38.805Z,99.28
2023-04-14T11:53:23.540Z,55.97
2023-04-14T11:55:51.995Z,47.80
2023-04-14T11:58:26.750Z,59.90
2023-04-14T12:00:56.160Z,21.35
2023-04-14T12:03:27.921Z,29.38
2023-04-14T12:06:00.632Z,20.85
2023-04-14T12:08:30.285Z,27.02
2023-04-14T12:10:57.823Z,21.77
2023-04-14T12:13:25.047Z,17.50
2023-04-14T12:15:52.921Z,14.30
2023-04-14T12:20:56.339Z,13.85
2023-04-14T12:23:23.709Z,12.77
2023-04-14T12:25:52.098Z,12.48
2023-04-14T12:28:29.308Z,14.55
2023-04-14T12:31:02.624Z,12.25
2023-04-14T12:33:31.051Z,10.35
2023-04-14T12:36:03.292Z,12.10
2023-04-14T12:38:30.039Z,16.90
2023-04-14T12:40:57.106Z,14.60
2023-04-14T12:43:42.058Z,18.00
2023-04-14T12:46:08.717Z,16.58
2023-04-14T12:48:53.381Z,16.88
2023-04-14T12:51:20.709Z,17.08
2023-04-14T12:53:50.313Z,20.10
2023-04-14T12:56:19.746Z,17.40
2023-04-14T12:58:47.465Z,16.90
2023-04-14T13:01:17.165Z,19.33
2023-04-14T13:03:52.733Z,20.15
2023-04-14T13:06:21.300Z,18.27
2023-04-14T13:11:16.877Z,17.75
2023-04-14T13:13:45.572Z,21.73
2023-04-14T13:16:17.763Z,22.33
2023-04-14T13:18:46.946Z,20.75
2023-04-14T13:21:13.853Z,21.80
2023-04-14T13:23:42.641Z,20.52
2023-04-14T13:26:09.798Z,18.27
2023-04-14T13:28:36.946Z,20.55
2023-04-14T13:31:03.744Z,18.60
2023-04-14T13:33:31.122Z,20.65
2023-04-14T13:35:57.943Z,16.60
2023-04-14T13:38:24.607Z,14.13
2023-04-14T13:40:51.300Z,17.27
2023-04-14T13:43:19.223Z,16.40
2023-04-14T13:45:46.825Z,19.35
2023-04-14T13:48:13.976Z,16.05
2023-04-14T13:50:41.870Z,18.50
2023-04-14T13:53:09.094Z,20.98
2023-04-14T13:55:36.276Z,21.25
2023-04-14T13:58:03.189Z,17.55
2023-04-14T14:00:30.048Z,15.57
2023-04-14T14:02:56.971Z,15.23
2023-04-14T14:05:23.917Z,15.65
2023-04-14T14:07:50.653Z,14.25
2023-04-14T14:10:17.332Z,11.07
2023-04-14T14:12:44.166Z,14.38
2023-04-14T14:15:15.354Z,11.85
2023-04-14T14:17:43.073Z,13.18
2023-04-14T14:20:10.015Z,13.55
2023-04-14T14:22:38.782Z,11.27
2023-04-14T14:27:47.703Z,8.95
2023-04-14T14:30:14.317Z,12.20
2023-04-14T14:32:41.849Z,12.95
2023-04-14T14:35:08.854Z,11.38
2023-04-14T14:37:35.816Z,10.50
2023-04-14T14:40:02.716Z,7.57
2023-04-14T14:42:29.517Z,12.30
2023-04-14T14:44:57.107Z,8.30
2023-04-14T14:47:25.286Z,8.43
2023-04-14T14:49:59.596Z,5.93
2023-04-14T14:52:33.907Z,8.10
2023-04-14T14:55:01.382Z,8.23
2023-04-14T14:57:29.837Z,7.20
2023-04-14T15:02:25.638Z,6.57
2023-04-14T15:04:53.274Z,4.72
2023-04-14T15:07:20.799Z,8.90
2023-04-14T15:09:47.600Z,7.47
2023-04-14T15:12:14.220Z,8.10
2023-04-14T15:14:41.938Z,3.50
2023-04-14T15:17:08.594Z,7.55
2023-04-14T15:19:35.170Z,6.53
2023-04-14T15:22:01.875Z,8.27
2023-04-14T15:24:28.553Z,7.15
2023-04-14T15:26:55.970Z,7.32
2023-04-14T15:29:25.134Z,7.95
2023-04-14T15:31:51.985Z,5.63
2023-04-14T15:34:18.903Z,6.25
2023-04-14T15:36:45.878Z,5.03
2023-04-14T15:39:12.657Z,5.93
2023-04-14T15:41:39.306Z,7.90
2023-04-14T15:44:05.907Z,5.93
2023-04-14T15:46:32.867Z,6.30
2023-04-14T15:48:59.451Z,6.00
2023-04-14T15:51:26.156Z,6.80
2023-04-14T15:53:52.963Z,6.57
2023-04-14T15:56:23.302Z,4.80
2023-04-14T15:58:50.546Z,5.65
2023-04-14T16:01:17.290Z,5.47
2023-04-14T16:03:44.097Z,5.57
2023-04-14T16:06:12.746Z,5.03
2023-04-14T16:08:39.426Z,5.32
2023-04-14T16:11:06.023Z,4.20
2023-04-14T16:13:32.671Z,4.97
2023-04-14T16:15:59.335Z,4.63
2023-04-14T16:18:26.033Z,5.40
2023-04-14T16:20:53.544Z,4.57
2023-04-14T16:23:20.680Z,4.60
2023-04-14T16:25:50.249Z,4.57
2023-04-14T16:28:16.957Z,4.50
2023-04-14T16:30:43.762Z,4.32
2023-04-14T16:33:11.492Z,4.72
2023-04-14T16:35:38.156Z,4.90
2023-04-14T16:38:08.436Z,5.72
2023-04-14T16:40:36.567Z,6.47
2023-04-14T16:43:04.098Z,6.78
2023-04-14T16:45:32.010Z,6.70
2023-04-14T16:47:58.949Z,8.18
2023-04-14T16:50:25.736Z,9.55
2023-04-14T16:52:52.549Z,7.15
2023-04-14T16:55:19.177Z,7.40
2023-04-14T16:57:46.112Z,8.75
2023-04-14T17:00:13.836Z,6.63
2023-04-14T17:02:42.981Z,5.03
2023-04-14T17:05:13.583Z,5.05
2023-04-14T17:07:42.351Z,7.10
2023-04-14T17:10:09.585Z,6.07
2023-04-14T17:12:36.246Z,5.15
2023-04-14T17:15:04.522Z,5.70
2023-04-14T17:17:31.998Z,6.43
2023-04-14T17:19:58.661Z,4.07
2023-04-14T17:22:25.234Z,5.25
2023-04-14T17:24:52.462Z,3.72
2023-04-14T17:27:19.225Z,3.90
2023-04-14T17:29:46.452Z,5.32
2023-04-14T17:32:13.667Z,5.32
2023-04-14T17:34:42.553Z,5.57
2023-04-14T17:37:09.245Z,4.90
2023-04-14T17:39:35.911Z,4.60
2023-04-14T17:42:03.462Z,5.47
2023-04-14T17:44:32.755Z,5.10
2023-04-14T17:47:04.875Z,3.65
2023-04-14T17:49:33.607Z,5.20
2023-04-14T17:52:00.344Z,4.85
2023-04-14T17:54:27.286Z,6.25
2023-04-14T17:56:53.893Z,4.30
2023-04-14T17:59:21.686Z,5.55
2023-04-14T18:01:48.680Z,4.90
2023-04-14T18:04:15.506Z,4.85
2023-04-14T18:06:43.646Z,6.82
2023-04-14T18:09:11.732Z,6.10
2023-04-14T18:11:38.451Z,5.38
2023-04-14T18:14:05.093Z,6.20
2023-04-14T18:16:32.420Z,5.05
2023-04-14T18:18:59.685Z,7.28
2023-04-14T18:21:27.519Z,7.07
2023-04-14T18:28:53.682Z,6.72
2023-04-14T18:31:20.362Z,7.82
2023-04-14T18:33:47.461Z,8.13
2023-04-14T18:36:14.065Z,8.77
2023-04-14T18:38:42.815Z,11.40
2023-04-14T18:41:12.423Z,6.50
2023-04-14T18:43:39.639Z,10.77
2023-04-14T18:46:06.619Z,9.07
2023-04-14T18:48:33.559Z,11.98
2023-04-14T18:51:02.577Z,10.20
2023-04-14T18:53:29.228Z,11.00
2023-04-14T18:55:55.864Z,11.75
2023-04-14T18:58:23.039Z,13.05
2023-04-14T19:00:49.611Z,11.88
2023-04-14T19:03:17.097Z,11.18
2023-04-14T19:05:44.930Z,12.63
2023-04-14T19:08:13.214Z,10.23
2023-04-14T19:10:42.576Z,12.23
2023-04-14T19:13:14.348Z,12.05
2023-04-14T19:15:43.834Z,10.60
2023-04-14T19:18:13.683Z,14.00
2023-04-14T19:20:42.810Z,15.80
2023-04-14T19:23:10.031Z,14.63
2023-04-14T19:25:39.412Z,14.73
2023-04-14T19:28:06.807Z,15.23
2023-04-14T19:30:33.658Z,17.05
2023-04-14T19:33:00.539Z,16.85
2023-04-14T19:35:27.961Z,17.77
2023-04-14T19:37:56.670Z,17.33
2023-04-14T19:40:23.341Z,19.42
2023-04-14T19:42:50.046Z,18.30
2023-04-14T19:45:16.832Z,19.80
2023-04-14T19:47:44.059Z,16.70
2023-04-14T19:50:13.449Z,18.55
2023-04-14T19:52:40.322Z,20.35
2023-04-14T19:57:35.436Z,21.45
2023-04-14T20:00:06.806Z,18.90
2023-04-14T20:02:34.304Z,21.55
2023-04-14T20:05:01.186Z,21.48
2023-04-14T20:07:27.810Z,22.13
2023-04-14T20:09:54.649Z,23.52
2023-04-14T20:12:21.259Z,26.40
2023-04-14T20:14:47.879Z,19.85
2023-04-14T20:17:14.514Z,21.00
2023-04-14T20:19:45.568Z,22.10
2023-04-14T20:22:15.232Z,21.92
2023-04-14T20:24:45.662Z,23.08
2023-04-14T20:27:13.507Z,21.88
2023-04-14T20:29:42.467Z,24.60
2023-04-14T20:32:09.618Z,22.02
2023-04-14T20:34:36.266Z,23.33
2023-04-14T20:37:03.004Z,24.20
2023-04-14T20:39:29.756Z,24.48
2023-04-14T20:41:56.646Z,22.20
2023-04-14T20:44:23.721Z,23.73
2023-04-14T20:46:50.521Z,23.80
2023-04-14T20:49:17.540Z,25.05
2023-04-14T20:51:46.925Z,30.75
2023-04-14T20:54:14.011Z,26.33
2023-04-14T20:56:42.246Z,30.30
2023-04-14T20:59:09.512Z,24.27
2023-04-14T21:01:37.122Z,25.13
2023-04-14T21:04:04.014Z,27.45
2023-04-14T21:06:32.968Z,29.75
2023-04-14T21:09:00.074Z,22.63
2023-04-14T21:11:27.389Z,28.95
2023-04-14T21:15:31.370Z,26.50
2023-04-14T21:16:43.755Z,27.10
2023-04-14T21:19:13.052Z,29.33
2023-04-14T21:21:39.795Z,30.77
2023-04-14T21:24:06.923Z,27.90
2023-04-14T21:26:33.601Z,29.65
2023-04-14T21:29:00.571Z,29.42
2023-04-14T21:31:27.602Z,29.73
2023-04-14T21:33:54.294Z,33.08
2023-04-14T21:36:21.859Z,37.47
2023-04-14T21:38:48.556Z,37.72
2023-04-14T21:41:16.037Z,45.63
2023-04-14T21:43:43.933Z,37.13
2023-04-14T21:46:11.855Z,43.00
2023-04-14T21:48:38.630Z,41.33
2023-04-14T21:51:05.335Z,43.42
2023-04-14T21:53:32.226Z,43.90
2023-04-14T21:56:10.260Z,36.47
2023-04-14T21:58:39.677Z,37.35
2023-04-14T22:01:07.302Z,40.35
2023-04-14T22:03:33.981Z,43.97
2023-04-14T22:06:01.183Z,43.42
2023-04-14T22:08:27.796Z,49.33
2023-04-14T22:10:54.970Z,51.17
2023-04-14T22:13:21.698Z,49.63
2023-04-14T22:15:49.247Z,51.63
2023-04-14T22:18:17.206Z,55.47
2023-04-14T22:20:45.188Z,53.85
2023-04-14T22:23:14.870Z,49.78
2023-04-14T22:25:44.032Z,45.60
2023-04-14T22:28:11.980Z,44.33
2023-04-14T22:30:38.731Z,49.85
2023-04-14T22:33:07.580Z,47.10
2023-04-14T22:35:34.221Z,45.00
2023-04-14T22:38:01.040Z,46.13
2023-04-14T22:40:27.678Z,44.30
2023-04-14T22:42:55.278Z,48.22
2023-04-14T22:45:21.995Z,40.17
2023-04-14T22:47:48.682Z,37.65
2023-04-14T22:50:16.330Z,41.05
2023-04-14T22:52:45.702Z,43.75
2023-04-14T22:55:15.643Z,46.65
2023-04-14T22:57:45.257Z,52.20
2023-04-14T23:00:16.232Z,47.58
2023-04-14T23:02:43.819Z,51.72
2023-04-14T23:05:15.247Z,41.78
2023-04-14T23:07:44.140Z,48.75
2023-04-14T23:10:15.394Z,51.05
2023-04-14T23:12:43.583Z,57.25
2023-04-14T23:15:12.458Z,57.33
2023-04-14T23:17:39.212Z,54.25
2023-04-14T23:20:07.130Z,51.22
2023-04-14T23:22:33.940Z,48.78
2023-04-14T23:25:00.755Z,45.17
2023-04-14T23:27:28.424Z,43.35
2023-04-14T23:29:55.056Z,52.70
2023-04-14T23:32:21.954Z,50.00
2023-04-14T23:34:48.532Z,52.10
2023-04-14T23:37:15.266Z,56.88
2023-04-14T23:39:43.693Z,49.42
2023-04-14T23:42:12.843Z,51.90
2023-04-14T23:44:39.534Z,54.95
2023-04-14T23:47:08.421Z,48.88
2023-04-14T23:49:35.756Z,58.40
2023-04-14T23:52:03.461Z,62.65
2023-04-14T23:54:31.087Z,72.55
2023-04-14T23:56:58.198Z,55.50
2023-04-14T23:59:24.930Z,54.53
